Time;durP1;ratioP1;P1;durP2;ratioP2;P2;SDS_P1;SDS_P2;PMS_P1;PMS_P2;Temp;Humidity;BMP_temperature;BMP_pressure;BME280_temperature;BME280_humidity;BME280_pressure;Samples;Min_cycle;Max_cycle;Signal;HPM_P1;HPM_P2
2022/02/11 00:00:26;;;;;;;44.00;26.20;;;;;;;-2.03;87.16;97818.95;109972;1247;70729;-71
2022/02/11 00:08:13;;;;;;;31.50;18.60;;;;;;;-1.90;83.12;97819.26;109685;1250;58905;-64
2022/02/11 00:10:43;;;;;;;38.20;24.30;;;;;;;-1.90;82.75;97820.28;109726;1251;58943;-64
2022/02/11 00:13:13;;;;;;;28.80;18.90;;;;;;;-1.94;83.22;97818.29;109962;1248;70649;-66
2022/02/11 00:15:43;;;;;;;25.60;17.70;;;;;;;-1.99;82.37;97817.02;110165;1247;67623;-68
2022/02/11 00:18:15;;;;;;;40.30;26.00;;;;;;;-2.05;82.10;97808.73;109866;1248;68346;-72
2022/02/11 00:20:47;;;;;;;34.00;20.90;;;;;;;-2.11;82.60;97811.90;109736;1251;58939;-66
2022/02/11 00:23:19;;;;;;;44.90;27.80;;;;;;;-2.14;83.17;97813.48;109821;1250;58984;-64
2022/02/11 00:25:57;;;;;;;35.90;21.00;;;;;;;-2.17;85.55;97812.86;109783;1248;70614;-66
2022/02/11 00:31:36;;;;;;;38.40;22.80;;;;;;;-2.09;82.54;97813.24;110171;1247;69423;-66
2022/02/11 00:33:56;;;;;;;44.00;27.20;;;;;;;-2.07;83.89;97811.84;109846;1247;58924;-74
2022/02/11 00:36:33;;;;;;;31.20;20.20;;;;;;;-2.09;85.58;97812.55;109860;1248;58892;-71
2022/02/11 00:39:22;;;;;;;34.80;18.50;;;;;;;-2.13;85.01;97812.80;110027;1247;70624;-72
2022/02/11 01:06:13;;;;;;;23.90;16.60;;;;;;;-2.60;82.82;97789.44;109971;1248;69765;-64
2022/02/11 01:08:43;;;;;;;21.50;16.10;;;;;;;-2.64;83.19;97790.85;109745;1248;68613;-64
2022/02/11 01:11:20;;;;;;;35.80;22.40;;;;;;;-2.67;82.40;97792.95;109950;1247;69381;-64
2022/02/11 01:13:50;;;;;;;38.80;25.10;;;;;;;-2.71;82.79;97792.15;110210;1247;58935;-63
2022/02/11 01:16:27;;;;;;;33.50;20.60;;;;;;;-2.74;84.37;97791.00;110191;1247;58881;-62
2022/02/11 01:22:10;;;;;;;17.80;13.10;;;;;;;-2.77;83.22;97784.22;109816;1248;68624;-67
2022/02/11 01:24:59;;;;;;;33.30;21.30;;;;;;;-2.79;84.88;97788.17;110056;1247;69490;-71
2022/02/11 01:27:38;;;;;;;28.80;18.30;;;;;;;-2.81;86.86;97788.55;110175;1247;58878;-72
2022/02/11 01:49:45;;;;;;;29.70;19.00;;;;;;;-2.86;82.03;97786.05;110009;1248;68361;-73
2022/02/11 02:00:40;;;;;;;25.60;15.70;;;;;;;-2.80;82.26;97777.60;109654;1251;70579;-64
2022/02/11 02:57:43;;;;;;;16.40;10.90;;;;;;;-3.34;86.57;97774.88;109996;1250;68422;-64
2022/02/11 04:22:21;;;;;;;18.20;11.50;;;;;;;-3.58;85.66;97781.63;109930;1248;68430;-63
2022/02/11 04:55:40;;;;;;;29.80;18.10;;;;;;;-4.00;88.26;97797.05;109838;1247;58964;-68
2022/02/11 05:00:57;;;;;;;20.00;14.00;;;;;;;-4.09;87.08;97801.88;110072;1247;70726;-68
2022/02/11 05:03:26;;;;;;;20.40;13.40;;;;;;;-4.13;86.55;97799.18;110033;1247;67718;-68
2022/02/11 05:05:56;;;;;;;18.20;13.70;;;;;;;-4.15;86.13;97807.20;109676;1251;69894;-66
2022/02/11 05:08:27;;;;;;;28.10;17.40;;;;;;;-4.16;86.79;97804.32;109907;1250;58909;-72
2022/02/11 05:10:57;;;;;;;31.30;20.50;;;;;;;-4.18;87.97;97800.93;110022;1250;58835;-69
2022/02/11 05:13:27;;;;;;;20.30;13.10;;;;;;;-4.23;88.22;97804.20;109903;1249;70787;-69
2022/02/11 05:15:57;;;;;;;26.40;17.60;;;;;;;-4.24;87.57;97808.98;109843;1248;68924;-70
2022/02/11 05:18:26;;;;;;;20.50;14.00;;;;;;;-4.26;87.35;97814.77;109913;1247;69446;-69
2022/02/11 05:20:56;;;;;;;40.10;31.60;;;;;;;-4.27;86.74;97809.17;109786;1249;58956;-71
2022/02/11 05:23:25;;;;;;;17.10;12.30;;;;;;;-4.27;86.27;97808.83;109747;1250;58878;-66
2022/02/11 05:25:55;;;;;;;21.90;14.00;;;;;;;-4.26;86.13;97813.24;109984;1250;69120;-65
2022/02/11 05:28:24;;;;;;;19.40;14.00;;;;;;;-4.26;86.27;97811.70;109882;1249;69084;-67
2022/02/11 05:30:54;;;;;;;38.30;25.10;;;;;;;-4.25;86.43;97816.47;109907;1250;68940;-66
2022/02/11 05:33:24;;;;;;;59.00;27.60;;;;;;;-4.25;87.19;97816.30;109866;1250;58887;-70
2022/02/11 05:35:53;;;;;;;24.50;16.20;;;;;;;-4.23;87.51;97817.98;110013;1247;58897;-68
2022/02/11 05:38:23;;;;;;;15.90;11.50;;;;;;;-4.16;86.12;97817.25;110007;1247;69726;-67
2022/02/11 05:40:52;;;;;;;21.70;13.60;;;;;;;-4.05;84.74;97816.66;109784;1248;68759;-65
2022/02/11 05:43:22;;;;;;;14.70;11.10;;;;;;;-4.01;85.09;97815.95;109977;1247;68997;-64
2022/02/11 05:45:52;;;;;;;16.10;11.40;;;;;;;-3.99;85.19;97819.50;109846;1247;58886;-63
2022/02/11 05:48:21;;;;;;;58.00;33.40;;;;;;;-3.97;84.90;97822.55;109718;1250;58851;-65
2022/02/11 05:50:50;;;;;;;80.80;45.50;;;;;;;-3.94;84.37;97826.27;109791;1248;70324;-69
2022/02/11 05:53:20;;;;;;;65.30;38.80;;;;;;;-3.91;84.47;97830.67;109852;1248;68667;-65
2022/02/11 05:55:50;;;;;;;50.50;29.00;;;;;;;-3.90;84.51;97835.24;109783;1249;68542;-64
2022/02/11 05:58:20;;;;;;;;;;;;;;;-3.90;84.70;97837.13;109856;1248;58953;-65
2022/02/11 06:00:49;;;;;;;45.80;29.20;;;;;;;-3.86;85.35;97835.57;109901;1248;58901;-64
2022/02/11 06:03:19;;;;;;;64.30;37.70;;;;;;;-3.83;85.53;97838.10;109894;1250;71350;-68
2022/02/11 06:05:49;;;;;;;39.30;23.70;;;;;;;-3.82;85.17;97840.30;109958;1248;68584;-64
2022/02/11 06:08:20;;;;;;;51.70;28.20;;;;;;;-3.81;84.97;97845.23;109814;1248;68661;-65
2022/02/11 06:10:50;;;;;;;39.00;20.90;;;;;;;-3.80;85.18;97848.96;109756;1248;58901;-64
2022/02/11 06:13:19;;;;;;;29.50;19.30;;;;;;;-3.77;84.51;97849.45;110008;1247;58939;-65
2022/02/11 06:15:49;;;;;;;24.50;16.70;;;;;;;-3.73;84.27;97850.95;109749;1247;69015;-69
2022/02/11 06:18:18;;;;;;;22.30;16.10;;;;;;;-3.70;83.97;97852.27;109876;1250;68655;-68
2022/02/11 06:20:47;;;;;;;22.50;13.30;;;;;;;-3.64;83.82;97848.48;109780;1249;68566;-69
2022/02/11 06:23:17;;;;;;;30.10;21.50;;;;;;;-3.56;83.98;97853.52;109860;1248;58953;-71
2022/02/11 06:25:48;;;;;;;22.80;16.10;;;;;;;-3.49;83.50;97853.95;110048;1247;58880;-67
2022/02/11 06:28:16;;;;;;;;;;;;;;;-3.39;83.19;97858.63;110034;1247;70011;-69
2022/02/11 06:30:46;;;;;;;53.30;30.70;;;;;;;-3.32;83.50;97859.92;110197;1247;67947;-64
2022/02/11 06:33:15;;;;;;;42.40;23.80;;;;;;;-3.25;85.29;97857.80;109949;1247;68655;-64
2022/02/11 06:35:45;;;;;;;35.60;19.60;;;;;;;-3.14;84.52;97858.53;110015;1247;58906;-64
2022/02/11 06:38:17;;;;;;;35.20;22.60;;;;;;;-3.00;84.31;97859.73;109752;1248;58903;-64
2022/02/11 06:40:46;;;;;;;27.00;14.70;;;;;;;-2.79;84.11;97860.16;110036;1247;70777;-66
2022/02/11 06:43:15;;;;;;;36.00;22.00;;;;;;;-2.51;83.49;97862.70;109868;1250;67093;-67
2022/02/11 06:45:45;;;;;;;27.30;15.10;;;;;;;-2.21;83.98;97865.34;109839;1250;69243;-70
2022/02/11 06:48:16;;;;;;;28.50;18.80;;;;;;;-1.87;83.50;97863.27;109769;1250;58961;-69
2022/02/11 06:50:47;;;;;;;60.90;37.20;;;;;;;-1.54;83.30;97862.05;109964;1250;58922;-70
2022/02/11 06:53:16;;;;;;;43.60;26.50;;;;;;;-1.33;83.00;97867.83;109916;1250;70073;-71
2022/02/11 06:55:45;;;;;;;39.80;26.10;;;;;;;-1.14;82.63;97862.86;109978;1248;67793;-71
2022/02/11 06:58:15;;;;;;;32.20;23.10;;;;;;;-0.95;82.29;97860.96;110144;1247;69456;-65
2022/02/11 07:00:46;;;;;;;46.90;33.30;;;;;;;-0.79;81.74;97853.61;109763;1248;58891;-66
2022/02/11 07:03:17;;;;;;;34.30;25.80;;;;;;;-0.78;81.61;97854.98;109976;1248;58854;-63
2022/02/11 07:05:47;;;;;;;31.50;22.80;;;;;;;-0.76;81.28;97855.61;109822;1249;70809;-64
2022/02/11 07:08:15;;;;;;;35.90;29.40;;;;;;;-0.74;81.01;97857.11;109881;1248;67805;-65
2022/02/11 07:10:51;;;;;;;59.60;42.80;;;;;;;-0.44;81.16;97852.88;109817;1247;68606;-67
2022/02/11 07:13:22;;;;;;;46.90;31.80;;;;;;;-0.01;81.28;97853.93;109795;1247;58967;-64
2022/02/11 07:15:51;;;;;;;31.90;20.50;;;;;;;0.57;81.28;97855.63;110000;1247;58930;-64
2022/02/11 07:18:20;;;;;;;60.40;42.00;;;;;;;1.26;80.92;97841.36;110030;1247;70001;-65
2022/02/11 07:20:50;;;;;;;63.40;46.20;;;;;;;1.82;76.77;97836.27;110109;1247;67826;-69
2022/02/11 07:23:19;;;;;;;44.90;30.30;;;;;;;2.24;77.00;97835.77;109961;1247;68688;-68
2022/02/11 07:25:49;;;;;;;59.70;42.00;;;;;;;2.85;76.26;97828.89;109776;1250;59175;-68
2022/02/11 07:28:20;;;;;;;54.30;38.00;;;;;;;3.44;74.96;97828.80;109821;1250;58837;-69
2022/02/11 07:30:51;;;;;;;41.30;29.80;;;;;;;4.03;73.61;97832.05;109728;1250;70137;-68
2022/02/11 07:33:20;;;;;;;44.10;31.50;;;;;;;4.63;73.76;97837.88;110052;1247;67798;-65
2022/02/11 07:35:49;;;;;;;43.20;30.80;;;;;;;5.22;71.55;97831.35;110167;1247;69434;-64
2022/02/11 07:38:18;;;;;;;44.50;30.80;;;;;;;5.75;72.11;97835.67;110085;1248;58905;-67
2022/02/11 07:40:49;;;;;;;33.70;24.70;;;;;;;6.42;71.22;97840.81;110151;1247;58895;-65
2022/02/11 07:43:18;;;;;;;29.60;21.30;;;;;;;7.11;70.79;97840.95;110136;1247;70098;-69
2022/02/11 07:46:06;;;;;;;22.20;16.40;;;;;;;7.86;69.48;97846.13;110199;1247;68603;-66
2022/02/11 07:48:35;;;;;;;23.70;19.80;;;;;;;8.48;65.53;97845.46;110147;1247;69452;-65
2022/02/11 07:51:04;;;;;;;23.00;18.90;;;;;;;8.95;64.13;97835.45;109924;1248;58956;-66
2022/02/11 07:53:34;;;;;;;27.70;21.40;;;;;;;9.45;64.51;97838.11;110196;1247;58831;-67
2022/02/11 07:56:03;;;;;;;;;;;;;;;10.01;64.23;97839.33;109977;1248;69973;-66
2022/02/11 07:58:32;;;;;;;31.80;26.40;;;;;;;10.55;62.32;97843.02;109962;1250;68601;-68
2022/02/11 08:01:01;;;;;;;29.60;22.70;;;;;;;11.04;59.13;97844.79;109946;1249;69399;-71
2022/02/11 08:03:30;;;;;;;25.30;19.20;;;;;;;11.54;58.03;97847.29;110161;1247;58890;-74
2022/02/11 08:05:59;;;;;;;25.10;20.40;;;;;;;12.05;54.93;97852.59;110182;1247;59361;-73
2022/02/11 08:08:31;;;;;;;23.40;18.80;;;;;;;12.53;55.16;97858.73;109918;1248;70265;-72
2022/02/11 08:11:00;;;;;;;26.50;22.00;;;;;;;12.92;51.88;97859.83;110157;1247;69274;-66
2022/02/11 08:13:31;;;;;;;39.50;34.20;;;;;;;13.24;50.68;97858.54;110112;1247;69445;-66
2022/02/11 08:16:00;;;;;;;36.40;32.40;;;;;;;13.49;47.67;97861.52;109903;1249;58906;-69
2022/02/11 08:18:29;;;;;;;35.70;31.50;;;;;;;13.75;45.55;97860.88;109956;1250;58818;-66
2022/02/11 08:21:16;;;;;;;32.60;26.60;;;;;;;14.06;45.83;97866.58;110151;1247;71238;-70
2022/02/11 08:23:45;;;;;;;20.60;17.10;;;;;;;14.24;43.08;97866.62;110144;1247;68587;-67
2022/02/11 08:26:14;;;;;;;18.10;15.70;;;;;;;14.56;45.22;97866.65;110152;1247;69516;-67
2022/02/11 08:28:43;;;;;;;19.00;16.60;;;;;;;14.89;40.95;97859.73;109917;1250;58922;-66
2022/02/11 08:31:12;;;;;;;16.30;14.40;;;;;;;14.91;38.20;97854.44;110186;1248;58941;-72
2022/02/11 08:33:42;;;;;;;15.20;11.60;;;;;;;14.86;39.88;97855.08;110168;1247;70556;-70
2022/02/11 08:36:10;;;;;;;19.00;15.50;;;;;;;15.42;39.29;97854.15;110161;1247;68554;-70
2022/02/11 08:38:39;;;;;;;16.30;13.30;;;;;;;15.05;37.03;97852.04;110131;1247;68461;-71
2022/02/11 08:41:08;;;;;;;14.90;12.50;;;;;;;15.07;36.63;97851.52;110164;1248;58860;-72
2022/02/11 08:43:38;;;;;;;16.40;14.70;;;;;;;14.85;36.92;97851.81;109974;1250;58933;-76
2022/02/11 08:46:08;;;;;;;17.40;14.20;;;;;;;14.37;38.18;97858.90;110139;1247;70856;-70
2022/02/11 08:48:38;;;;;;;17.40;15.00;;;;;;;15.13;38.06;97857.15;110166;1247;69296;-67
2022/02/11 08:51:07;;;;;;;17.70;15.10;;;;;;;14.97;37.04;97848.72;110116;1247;69235;-65
2022/02/11 08:53:37;;;;;;;16.70;14.90;;;;;;;15.55;37.10;97850.09;109902;1249;58957;-66
2022/02/11 08:56:08;;;;;;;16.60;14.90;;;;;;;15.82;36.05;97858.98;109967;1248;58941;-70
2022/02/11 08:58:38;;;;;;;15.50;12.50;;;;;;;16.18;36.51;97856.16;109968;1247;69276;-70
2022/02/11 09:01:09;;;;;;;18.80;14.90;;;;;;;16.38;34.10;97856.57;110187;1247;68712;-71
2022/02/11 09:03:39;;;;;;;12.50;11.20;;;;;;;16.37;35.97;97854.14;110178;1247;69430;-70
2022/02/11 09:06:09;;;;;;;12.70;11.10;;;;;;;17.25;36.32;97855.11;110226;1247;58858;-69
2022/02/11 09:08:40;;;;;;;13.90;12.40;;;;;;;17.81;33.33;97852.52;110226;1247;58944;-69
2022/02/11 09:11:12;;;;;;;16.90;12.60;;;;;;;18.32;34.08;97852.39;109927;1248;70039;-72
2022/02/11 09:13:41;;;;;;;14.60;12.00;;;;;;;18.65;33.63;97853.01;110153;1247;68124;-72
2022/02/11 09:16:10;;;;;;;12.80;11.40;;;;;;;19.18;33.80;97852.52;110142;1247;69463;-70
2022/02/11 09:18:39;;;;;;;13.70;12.20;;;;;;;19.76;33.32;97850.11;110137;1247;58933;-73
2022/02/11 09:21:09;;;;;;;15.60;13.20;;;;;;;20.16;33.04;97855.14;110163;1247;58912;-69
2022/02/11 09:23:38;;;;;;;15.50;13.10;;;;;;;20.56;31.11;97854.50;110197;1247;71419;-67
2022/02/11 09:26:07;;;;;;;14.80;12.80;;;;;;;19.83;28.52;97850.28;110150;1247;68508;-72
2022/02/11 09:28:36;;;;;;;13.60;12.20;;;;;;;20.30;30.84;97855.98;110143;1247;69218;-67
2022/02/11 09:31:08;;;;;;;19.40;16.50;;;;;;;20.82;29.57;97858.05;109895;1248;58945;-68
2022/02/11 09:33:38;;;;;;;14.90;13.30;;;;;;;20.92;29.56;97858.02;110185;1247;58872;-69
2022/02/11 09:36:08;;;;;;;13.80;11.70;;;;;;;21.16;28.30;97860.44;109933;1247;70050;-67
2022/02/11 09:38:37;;;;;;;14.50;13.00;;;;;;;21.56;27.50;97854.77;109985;1247;68654;-67
2022/02/11 09:41:07;;;;;;;16.10;14.00;;;;;;;21.44;27.60;97856.00;110114;1247;69546;-67
2022/02/11 09:43:38;;;;;;;17.10;15.10;;;;;;;19.87;27.23;97855.80;110177;1247;58870;-67
2022/02/11 09:46:08;;;;;;;;;;;;;;;19.53;29.05;97851.61;110191;1247;58913;-70
2022/02/11 09:48:36;;;;;;;17.20;15.40;;;;;;;19.94;28.86;97853.89;110175;1247;70751;-73
2022/02/11 09:51:04;;;;;;;13.60;11.70;;;;;;;18.61;29.63;97853.48;110156;1247;68070;-75
2022/02/11 09:53:33;;;;;;;15.20;12.40;;;;;;;19.23;28.62;97852.48;110131;1247;68681;-72
2022/02/11 09:56:04;;;;;;;12.10;10.70;;;;;;;19.75;29.44;97850.55;110126;1247;58944;-69
2022/02/11 09:58:53;;;;;;;13.10;11.00;;;;;;;20.43;28.59;97851.41;109885;1248;58882;-76
2022/02/11 10:01:22;;;;;;;15.70;13.10;;;;;;;21.28;27.83;97841.16;110147;1247;70762;-69
2022/02/11 10:04:10;;;;;;;13.40;11.70;;;;;;;21.87;26.86;97839.48;110033;1248;67830;-69
2022/02/11 10:06:40;;;;;;;15.50;11.70;;;;;;;22.51;26.78;97843.39;110184;1247;70063;-72
2022/02/11 10:09:09;;;;;;;13.30;11.90;;;;;;;22.51;25.89;97835.16;109862;1249;58876;-67
2022/02/11 10:11:39;;;;;;;13.30;11.90;;;;;;;22.92;25.08;97836.69;110123;1247;58804;-70
2022/02/11 10:14:33;;;;;;;16.30;14.20;;;;;;;23.03;24.97;97837.73;109999;1248;70730;-71
2022/02/11 10:17:08;;;;;;;15.10;13.10;;;;;;;23.05;24.71;97833.35;110161;1247;68630;-77
2022/02/11 10:19:46;;;;;;;13.40;11.10;;;;;;;23.23;24.41;97829.69;109997;1248;68886;-75
2022/02/11 10:22:28;;;;;;;12.90;11.40;;;;;;;23.53;24.43;97824.64;110189;1247;58890;-78
2022/02/11 10:24:58;;;;;;;12.10;10.80;;;;;;;23.52;23.54;97829.39;109993;1248;58834;-74
2022/02/11 10:27:29;;;;;;;;;;;;;;;23.29;23.73;97828.48;109815;1250;70018;-73
2022/02/11 10:30:05;;;;;;;16.90;15.10;;;;;;;23.60;23.93;97827.58;109958;1250;68718;-73
2022/02/11 10:32:46;;;;;;;12.80;11.50;;;;;;;21.92;24.49;97822.04;110111;1247;70097;-73
2022/02/11 10:35:17;;;;;;;16.50;14.30;;;;;;;22.68;25.16;97825.21;110118;1247;58889;-76
2022/02/11 10:38:15;;;;;;;21.90;19.60;;;;;;;23.24;25.07;97820.92;109959;1247;58860;-74
2022/02/11 10:40:45;;;;;;;20.60;18.30;;;;;;;23.66;24.66;97807.07;109857;1250;70753;-74
2022/02/11 10:43:26;;;;;;;24.10;21.40;;;;;;;23.78;24.01;97804.08;110052;1250;67629;-73
2022/02/11 10:46:01;;;;;;;24.90;21.50;;;;;;;23.85;24.39;97802.32;109848;1250;68726;-75
2022/02/11 10:48:34;;;;;;;22.90;19.50;;;;;;;22.88;24.27;97794.26;109849;1250;58904;-73
2022/02/11 10:51:07;;;;;;;18.90;16.30;;;;;;;23.06;24.94;97788.98;109909;1249;58954;-73
2022/02/11 10:53:39;;;;;;;20.20;18.10;;;;;;;23.55;24.53;97782.23;109850;1251;71026;-75
2022/02/11 10:56:08;;;;;;;22.90;18.50;;;;;;;24.01;24.33;97783.09;109747;1250;67978;-74
2022/02/11 10:58:39;;;;;;;23.00;20.10;;;;;;;23.59;23.70;97779.69;109719;1250;67478;-77
2022/02/11 11:01:08;;;;;;;19.60;17.20;;;;;;;23.85;24.44;97781.98;109911;1250;58885;-74
2022/02/11 11:03:37;;;;;;;20.30;17.30;;;;;;;24.36;24.64;97776.95;109962;1250;58966;-68
2022/02/11 11:06:10;;;;;;;20.90;18.70;;;;;;;24.92;23.27;97774.64;109900;1250;70809;-69
2022/02/11 11:08:43;;;;;;;21.30;18.30;;;;;;;24.82;22.52;97771.77;109903;1250;68003;-68
2022/02/11 11:11:14;;;;;;;18.10;15.80;;;;;;;24.96;22.90;97775.70;109708;1250;69539;-67
2022/02/11 11:13:48;;;;;;;20.90;18.60;;;;;;;25.25;22.22;97767.17;109998;1249;58902;-67
2022/02/11 11:16:17;;;;;;;21.20;18.90;;;;;;;25.35;22.51;97764.91;109907;1250;58808;-73
2022/02/11 11:18:47;;;;;;;22.30;19.90;;;;;;;25.61;22.05;97764.33;109902;1250;70019;-70
2022/02/11 11:21:16;;;;;;;;;;;;;;;25.21;21.94;97762.94;109888;1250;67793;-74
2022/02/11 11:23:53;;;;;;;;;;;;;;;25.50;23.12;97763.23;110082;1250;69239;-68
2022/02/11 11:26:37;;;;;;;18.10;16.20;;;;;;;26.06;22.32;97757.33;109704;1250;58957;-69
2022/02/11 11:29:12;;;;;;;18.60;16.60;;;;;;;25.13;20.56;97758.88;109746;1250;58958;-68
2022/02/11 11:31:58;;;;;;;18.90;16.90;;;;;;;24.26;21.49;97758.26;109910;1250;70191;-67
2022/02/11 11:34:31;;;;;;;12.50;11.30;;;;;;;24.18;22.22;97759.64;110042;1250;67823;-68
2022/02/11 11:37:06;;;;;;;16.20;13.90;;;;;;;24.80;21.86;97758.66;109897;1251;70114;-68
2022/02/11 11:39:37;;;;;;;12.60;11.10;;;;;;;25.33;21.66;97753.91;110123;1247;59742;-68
2022/02/11 11:42:17;;;;;;;12.90;11.70;;;;;;;25.63;20.64;97754.61;110327;1249;59750;-69
2022/02/11 11:44:49;;;;;;;11.40;10.20;;;;;;;26.04;20.41;97752.55;109955;1249;71611;-70
2022/02/11 11:47:28;;;;;;;11.20;10.00;;;;;;;26.64;19.82;97754.66;110059;1250;67837;-69
2022/02/11 11:49:58;;;;;;;20.60;18.60;;;;;;;27.31;20.26;97751.71;109970;1250;68781;-69
2022/02/11 11:52:51;;;;;;;15.50;13.90;;;;;;;27.69;19.11;97751.33;110221;1247;60126;-66
2022/02/11 11:55:23;;;;;;;19.10;15.80;;;;;;;28.01;19.08;97749.84;110169;1247;59699;-68
2022/02/11 11:57:52;;;;;;;18.70;16.60;;;;;;;27.71;18.83;97746.02;109929;1250;71718;-67
2022/02/11 12:00:35;;;;;;;18.80;16.60;;;;;;;27.74;18.99;97743.05;109968;1250;68702;-68
2022/02/11 12:03:10;;;;;;;16.70;14.60;;;;;;;27.90;19.11;97746.63;110003;1248;68673;-67
2022/02/11 12:05:56;;;;;;;17.50;15.30;;;;;;;28.03;19.12;97742.27;110179;1248;59760;-69
2022/02/11 12:08:28;;;;;;;16.70;15.00;;;;;;;28.39;18.66;97743.95;109932;1250;59645;-69
2022/02/11 12:10:59;;;;;;;21.70;18.90;;;;;;;28.44;17.98;97745.08;110214;1247;71543;-68
2022/02/11 12:13:28;;;;;;;19.30;17.30;;;;;;;28.51;18.39;97743.62;109951;1250;67785;-67
2022/02/11 12:15:58;;;;;;;18.00;16.10;;;;;;;28.46;18.23;97748.63;110141;1248;68492;-65
2022/02/11 12:18:27;;;;;;;20.70;18.50;;;;;;;28.49;18.02;97750.61;110153;1247;59740;-68
2022/02/11 12:20:59;;;;;;;14.70;13.20;;;;;;;28.63;17.80;97747.84;110181;1248;59705;-74
2022/02/11 12:29:07;;;;;;;17.30;14.20;;;;;;;28.58;17.57;97746.98;110147;1247;69369;-66
2022/02/11 12:31:36;;;;;;;17.90;16.00;;;;;;;28.52;17.55;97744.16;110134;1247;59764;-68
2022/02/11 12:34:19;;;;;;;18.00;15.70;;;;;;;28.37;17.70;97739.30;110165;1247;59697;-70
2022/02/11 12:36:48;;;;;;;11.50;10.20;;;;;;;27.94;17.85;97741.20;110133;1248;70822;-68
2022/02/11 12:39:22;;;;;;;13.00;11.70;;;;;;;28.03;18.25;97739.63;110152;1248;66834;-74
2022/02/11 12:41:52;;;;;;;14.30;12.30;;;;;;;28.02;17.64;97740.38;110137;1248;69439;-68
2022/02/11 12:44:27;;;;;;;12.80;11.10;;;;;;;28.10;17.65;97740.70;109963;1250;59685;-71
2022/02/11 12:46:59;;;;;;;12.30;10.30;;;;;;;28.28;17.63;97737.46;109960;1250;59674;-75
2022/02/11 12:49:30;;;;;;;16.30;12.60;;;;;;;27.76;17.45;97733.40;110130;1247;71547;-74
2022/02/11 12:52:01;;;;;;;14.30;11.70;;;;;;;27.42;17.84;97731.20;110185;1247;68608;-74
2022/02/11 12:54:30;;;;;;;12.60;10.80;;;;;;;27.17;17.49;97731.77;109920;1249;68831;-72
2022/02/11 12:57:03;;;;;;;11.30;10.10;;;;;;;26.98;17.83;97731.47;110152;1248;59683;-74
2022/02/11 12:59:32;;;;;;;11.30;10.00;;;;;;;27.06;18.04;97732.71;110209;1247;59699;-74
2022/02/11 13:02:01;;;;;;;10.30;9.20;;;;;;;27.37;17.84;97729.48;110173;1247;71900;-74
2022/02/11 13:04:31;;;;;;;10.50;9.30;;;;;;;27.21;17.53;97728.86;110153;1248;68103;-74
2022/02/11 13:07:00;;;;;;;12.60;10.20;;;;;;;27.05;18.06;97733.23;110171;1247;69429;-68
2022/02/11 13:09:29;;;;;;;10.90;9.60;;;;;;;26.75;17.85;97730.42;110143;1247;59731;-68
2022/02/11 13:12:08;;;;;;;13.10;11.70;;;;;;;26.76;18.04;97728.14;110199;1247;59701;-74
2022/02/11 13:14:46;;;;;;;13.00;11.00;;;;;;;26.98;18.00;97725.12;110158;1248;71577;-67
2022/02/11 13:17:15;;;;;;;11.80;9.90;;;;;;;26.74;17.84;97727.77;109948;1250;68702;-70
2022/02/11 13:19:48;;;;;;;12.20;10.40;;;;;;;26.70;18.27;97721.13;109972;1247;68648;-68
2022/02/11 13:22:18;;;;;;;10.90;9.20;;;;;;;26.36;18.39;97715.29;110181;1250;59763;-67
2022/02/11 13:24:47;;;;;;;12.80;11.20;;;;;;;25.85;17.98;97716.62;110011;1250;59671;-68
2022/02/11 13:27:16;;;;;;;11.60;9.60;;;;;;;25.16;18.79;97718.12;110160;1247;70993;-67
2022/02/11 13:30:01;;;;;;;10.70;9.60;;;;;;;25.49;18.95;97722.11;110182;1247;68084;-68
2022/02/11 13:32:30;;;;;;;11.50;9.10;;;;;;;25.62;19.06;97720.72;110172;1249;69441;-67
2022/02/11 13:35:04;;;;;;;10.90;9.70;;;;;;;25.52;19.05;97717.16;110158;1248;59767;-69
2022/02/11 13:37:37;;;;;;;11.40;10.20;;;;;;;25.59;19.13;97714.86;110008;1250;59699;-68
2022/02/11 13:40:19;;;;;;;13.60;12.20;;;;;;;25.34;18.84;97711.92;110013;1250;71691;-68
2022/02/11 13:42:55;;;;;;;9.60;8.60;;;;;;;24.97;19.59;97709.80;109971;1249;68072;-66
2022/02/11 13:45:25;;;;;;;12.00;10.70;;;;;;;25.07;19.53;97706.30;109895;1250;69947;-67
2022/02/11 13:48:07;;;;;;;10.00;8.50;;;;;;;24.63;19.50;97704.45;109959;1247;59751;-66
2022/02/11 13:51:13;;;;;;;12.30;10.50;;;;;;;24.36;19.82;97701.16;110184;1248;59782;-67
2022/02/11 13:53:47;;;;;;;11.60;9.60;;;;;;;23.61;20.61;97699.67;110157;1247;72079;-74
2022/02/11 13:56:19;;;;;;;13.30;11.70;;;;;;;23.34;21.05;97691.58;109991;1250;67795;-76
2022/02/11 13:59:08;;;;;;;13.90;12.30;;;;;;;22.88;21.66;97690.70;110003;1250;68564;-73
2022/02/11 14:01:38;;;;;;;12.40;10.60;;;;;;;22.87;21.93;97696.14;109958;1247;59679;-67
2022/02/11 14:04:10;;;;;;;17.50;15.40;;;;;;;23.09;22.08;97694.44;110163;1249;59635;-65
2022/02/11 14:06:56;;;;;;;15.20;13.50;;;;;;;23.23;22.02;97700.26;110044;1247;71625;-74
2022/02/11 14:09:36;;;;;;;15.10;12.10;;;;;;;23.30;22.01;97701.16;109944;1250;67851;-74
2022/02/11 14:12:25;;;;;;;18.00;15.50;;;;;;;23.32;22.08;97705.42;109921;1250;69531;-74
2022/02/11 14:15:02;;;;;;;14.20;11.90;;;;;;;23.33;22.24;97703.55;110126;1247;59776;-73
2022/02/11 14:17:34;;;;;;;13.40;10.50;;;;;;;23.36;22.21;97704.08;109700;1250;59755;-73
2022/02/11 14:20:06;;;;;;;14.40;11.50;;;;;;;23.34;22.15;97699.77;110146;1248;70796;-73
2022/02/11 14:22:35;;;;;;;;;;;;;;;23.21;22.17;97697.40;109889;1250;67918;-73
2022/02/11 14:25:05;;;;;;;12.20;10.80;;;;;;;23.15;22.47;97698.49;109972;1250;69368;-75
2022/02/11 14:27:35;;;;;;;;;;;;;;;22.94;22.50;97699.55;110207;1248;59682;-74
2022/02/11 14:30:04;;;;;;;14.90;12.80;;;;;;;22.35;22.92;97701.61;110149;1250;60046;-74
2022/02/11 14:32:33;;;;;;;;;;;;;;;21.80;23.48;97699.52;109928;1250;72028;-74
2022/02/11 14:35:02;;;;;;;13.80;11.10;;;;;;;21.52;23.82;97704.83;110142;1250;67795;-67
2022/02/11 14:37:31;;;;;;;11.60;9.40;;;;;;;21.23;24.02;97705.59;110054;1250;68665;-67
2022/02/11 14:40:01;;;;;;;10.20;8.70;;;;;;;21.17;24.25;97708.42;109865;1250;59634;-72
2022/02/11 14:42:31;;;;;;;11.40;9.70;;;;;;;21.19;24.14;97708.22;109965;1250;59652;-73
2022/02/11 14:45:00;;;;;;;13.40;10.90;;;;;;;21.04;24.31;97708.05;109475;1250;71786;-75
2022/02/11 14:47:28;;;;;;;14.80;11.60;;;;;;;20.79;24.48;97709.74;109960;1248;68656;-69
2022/02/11 14:49:57;;;;;;;13.70;11.50;;;;;;;20.50;24.69;97711.23;110145;1248;69450;-74
2022/02/11 14:52:26;;;;;;;13.90;10.70;;;;;;;20.15;25.18;97717.64;109914;1250;59754;-73
2022/02/11 14:54:58;;;;;;;14.70;10.50;;;;;;;19.67;25.60;97715.50;109890;1250;59699;-70
2022/02/11 14:57:27;;;;;;;14.20;11.50;;;;;;;19.18;26.09;97714.15;110154;1248;69774;-69
2022/02/11 14:59:56;;;;;;;13.80;11.90;;;;;;;18.75;26.64;97715.73;110186;1247;67812;-68
2022/02/11 15:02:25;;;;;;;13.80;10.90;;;;;;;18.17;27.46;97717.36;110131;1248;69418;-75
2022/02/11 15:04:54;;;;;;;14.70;11.40;;;;;;;17.64;28.21;97718.44;109915;1250;59702;-72
2022/02/11 15:07:23;;;;;;;14.80;12.20;;;;;;;17.13;28.85;97718.95;109983;1248;59729;-71
2022/02/11 15:09:52;;;;;;;18.50;14.40;;;;;;;16.64;29.66;97720.79;110163;1249;70802;-68
2022/02/11 15:12:21;;;;;;;15.30;12.90;;;;;;;16.12;30.70;97728.93;110188;1247;68476;-67
2022/02/11 15:14:50;;;;;;;15.30;13.30;;;;;;;15.56;31.66;97727.59;110136;1247;67680;-67
2022/02/11 15:17:19;;;;;;;17.50;13.60;;;;;;;15.01;32.53;97726.91;110134;1248;59686;-71
2022/02/11 15:19:48;;;;;;;19.60;15.70;;;;;;;14.29;33.68;97726.12;110155;1248;59672;-69
2022/02/11 15:22:18;;;;;;;21.10;17.40;;;;;;;13.44;35.19;97726.31;110152;1250;72152;-66
2022/02/11 15:24:48;;;;;;;16.30;13.20;;;;;;;12.48;37.77;97729.39;109956;1250;68770;-66
2022/02/11 15:27:18;;;;;;;21.50;16.80;;;;;;;11.75;38.14;97732.16;110138;1250;69431;-72
2022/02/11 15:29:47;;;;;;;23.70;19.60;;;;;;;10.90;40.44;97730.30;109894;1250;60121;-71
2022/02/11 15:32:16;;;;;;;24.10;19.40;;;;;;;10.20;43.06;97735.56;109884;1250;59640;-76